Terminal Aerodrome Forecast
Issued by NWS Billings, MT

Home | Current Version | Previous Version | Graphics & Text | Print | Product List | Glossary On
Versions: 1 2 3 4 5 6 7 8 9 10 11 12 13 14 15 16
000
FTUS45 KBYZ 201120
TAFMLS
TAF
KMLS 201120Z 2012/2112 VRB06KT P6SM SKC
     FM201500 23015G24KT P6SM VCTS SCT100CB
     FM201800 28012KT P6SM VCTS SCT100CB
     FM210000 25018G30KT P6SM VCSH SCT100=

USA.gov is the U.S. government's official web portal to all federal, state and local government web resources and services.